sensor_id;sensor_type;location;lat;lon;timestamp;pressure;altitude;pressure_sealevel;temperature;humidity
39769;BME280;38939;47.824;14.642;2023-05-21T00:00:33;96886.41;;;14.24;86.34
39769;BME280;38939;47.824;14.642;2023-05-21T00:01:34;96891.09;;;14.22;85.94
39769;BME280;38939;47.824;14.642;2023-05-21T00:02:37;96886.94;;;14.14;86.86
39769;BME280;38939;47.824;14.642;2023-05-21T00:03:39;96890.47;;;14.08;87.32
39769;BME280;38939;47.824;14.642;2023-05-21T00:04:45;96901.41;;;14.05;87.68
39769;BME280;38939;47.824;14.642;2023-05-21T00:05:48;96892.53;;;14.06;87.30
39769;BME280;38939;47.824;14.642;2023-05-21T00:06:50;96899.34;;;14.07;87.46
39769;BME280;38939;47.824;14.642;2023-05-21T00:07:52;96899.34;;;14.07;88.02
39769;BME280;38939;47.824;14.642;2023-05-21T00:08:55;96898.22;;;14.03;87.94
39769;BME280;38939;47.824;14.642;2023-05-21T00:09:57;96894.44;;;13.99;88.10
39769;BME280;38939;47.824;14.642;2023-05-21T00:10:59;96892.38;;;14.01;87.81
39769;BME280;38939;47.824;14.642;2023-05-21T00:12:01;96893.75;;;14.04;87.86
39769;BME280;38939;47.824;14.642;2023-05-21T00:13:03;96887.13;;;14.01;87.83
39769;BME280;38939;47.824;14.642;2023-05-21T00:14:05;96891.00;;;13.98;88.17
39769;BME280;38939;47.824;14.642;2023-05-21T00:15:07;96888.19;;;14.00;87.33
39769;BME280;38939;47.824;14.642;2023-05-21T00:16:09;96885.88;;;14.04;86.81
39769;BME280;38939;47.824;14.642;2023-05-21T00:17:11;96888.06;;;14.07;86.56
39769;BME280;38939;47.824;14.642;2023-05-21T00:18:13;96884.19;;;14.09;86.43
39769;BME280;38939;47.824;14.642;2023-05-21T00:19:16;96881.78;;;14.08;86.88
39769;BME280;38939;47.824;14.642;2023-05-21T00:20:18;96872.44;;;14.00;87.02
39769;BME280;38939;47.824;14.642;2023-05-21T00:21:20;96877.31;;;13.96;87.16
39769;BME280;38939;47.824;14.642;2023-05-21T00:22:23;96881.31;;;13.99;87.23
39769;BME280;38939;47.824;14.642;2023-05-21T00:23:25;96883.16;;;13.98;87.72
39769;BME280;38939;47.824;14.642;2023-05-21T00:24:27;96875.69;;;13.95;88.31
39769;BME280;38939;47.824;14.642;2023-05-21T00:25:30;96871.13;;;13.91;88.72
39769;BME280;38939;47.824;14.642;2023-05-21T00:26:32;96865.19;;;13.84;89.63
39769;BME280;38939;47.824;14.642;2023-05-21T00:27:34;96861.75;;;13.83;88.88
39769;BME280;38939;47.824;14.642;2023-05-21T00:28:36;96867.16;;;13.88;88.21
39769;BME280;38939;47.824;14.642;2023-05-21T00:29:38;96872.97;;;13.90;87.34
39769;BME280;38939;47.824;14.642;2023-05-21T00:30:41;96870.56;;;13.89;87.39
39769;BME280;38939;47.824;14.642;2023-05-21T00:31:43;96869.78;;;13.88;86.98
39769;BME280;38939;47.824;14.642;2023-05-21T00:32:45;96868.50;;;13.91;86.68
39769;BME280;38939;47.824;14.642;2023-05-21T00:33:48;96871.72;;;13.93;86.13
39769;BME280;38939;47.824;14.642;2023-05-21T00:34:49;96871.72;;;13.93;86.09
39769;BME280;38939;47.824;14.642;2023-05-21T00:35:52;96868.09;;;13.94;86.15
39769;BME280;38939;47.824;14.642;2023-05-21T00:36:54;96864.41;;;13.95;85.85
39769;BME280;38939;47.824;14.642;2023-05-21T00:37:57;96874.47;;;13.98;85.83
39769;BME280;38939;47.824;14.642;2023-05-21T00:38:59;96873.66;;;13.97;86.23
39769;BME280;38939;47.824;14.642;2023-05-21T00:40:03;96879.16;;;13.96;86.63
39769;BME280;38939;47.824;14.642;2023-05-21T00:41:12;96871.72;;;13.93;86.88
39769;BME280;38939;47.824;14.642;2023-05-21T00:42:14;96874.81;;;13.90;86.84
39769;BME280;38939;47.824;14.642;2023-05-21T00:43:18;96872.19;;;13.90;86.82
39769;BME280;38939;47.824;14.642;2023-05-21T00:44:21;96873.75;;;13.91;86.52
39769;BME280;38939;47.824;14.642;2023-05-21T00:45:24;96876.97;;;13.93;85.90
39769;BME280;38939;47.824;14.642;2023-05-21T00:46:26;96868.50;;;13.91;86.06
39769;BME280;38939;47.824;14.642;2023-05-21T00:47:29;96878.66;;;13.87;86.68
39769;BME280;38939;47.824;14.642;2023-05-21T00:48:31;96869.41;;;13.85;86.41
39769;BME280;38939;47.824;14.642;2023-05-21T00:49:33;96874.44;;;13.86;86.80
39769;BME280;38939;47.824;14.642;2023-05-21T00:50:35;96871.25;;;13.84;86.78
39769;BME280;38939;47.824;14.642;2023-05-21T00:51:40;96869.19;;;13.86;86.87
39769;BME280;38939;47.824;14.642;2023-05-21T00:52:42;96866.22;;;13.83;87.15
39769;BME280;38939;47.824;14.642;2023-05-21T00:53:48;96870.31;;;13.78;87.73
39769;BME280;38939;47.824;14.642;2023-05-21T00:54:52;96862.88;;;13.75;87.55
39769;BME280;38939;47.824;14.642;2023-05-21T00:55:54;96865.06;;;13.78;87.12
39769;BME280;38939;47.824;14.642;2023-05-21T00:56:56;96869.88;;;13.82;87.08
39769;BME280;38939;47.824;14.642;2023-05-21T00:57:59;96866.78;;;13.85;87.17
39769;BME280;38939;47.824;14.642;2023-05-21T00:59:01;96865.53;;;13.87;87.92
39769;BME280;38939;47.824;14.642;2023-05-21T01:00:06;96869.97;;;13.87;88.18
39769;BME280;38939;47.824;14.642;2023-05-21T01:01:09;96862.91;;;13.87;88.01
39769;BME280;38939;47.824;14.642;2023-05-21T01:02:14;96866.94;;;13.90;88.17
39769;BME280;38939;47.824;14.642;2023-05-21T01:03:18;96869.09;;;13.93;87.41
39769;BME280;38939;47.824;14.642;2023-05-21T01:04:21;96868.88;;;13.94;87.38
39769;BME280;38939;47.824;14.642;2023-05-21T01:05:24;96865.47;;;13.94;87.45
39769;BME280;38939;47.824;14.642;2023-05-21T01:06:26;96871.28;;;13.96;87.28
39769;BME280;38939;47.824;14.642;2023-05-21T01:07:28;96864.41;;;13.95;87.37
39769;BME280;38939;47.824;14.642;2023-05-21T01:08:31;96870.47;;;13.95;87.23
39769;BME280;38939;47.824;14.642;2023-05-21T01:09:35;96863.63;;;13.94;87.66
39769;BME280;38939;47.824;14.642;2023-05-21T01:10:37;96871.28;;;13.96;87.34
39769;BME280;38939;47.824;14.642;2023-05-21T01:11:40;96863.16;;;13.97;87.37
39769;BME280;38939;47.824;14.642;2023-05-21T01:12:43;96860.31;;;13.99;87.10
39769;BME280;38939;47.824;14.642;2023-05-21T01:13:46;96858.28;;;14.01;86.90
39769;BME280;38939;47.824;14.642;2023-05-21T01:14:48;96858.06;;;14.03;86.55
39769;BME280;38939;47.824;14.642;2023-05-21T01:15:51;96857.03;;;14.04;86.77
39769;BME280;38939;47.824;14.642;2023-05-21T01:16:54;96860.22;;;14.06;86.88
39769;BME280;38939;47.824;14.642;2023-05-21T01:17:56;96861.63;;;14.08;86.25
39769;BME280;38939;47.824;14.642;2023-05-21T01:18:58;96860.56;;;14.09;86.62
39769;BME280;38939;47.824;14.642;2023-05-21T01:20:00;96853.75;;;14.08;87.07
39769;BME280;38939;47.824;14.642;2023-05-21T01:21:03;96864.25;;;14.08;87.25
39769;BME280;38939;47.824;14.642;2023-05-21T01:22:06;96855.78;;;14.06;87.08
39769;BME280;38939;47.824;14.642;2023-05-21T01:23:08;96854.19;;;14.05;86.73
39769;BME280;38939;47.824;14.642;2023-05-21T01:24:12;96856.00;;;14.05;87.22
39769;BME280;38939;47.824;14.642;2023-05-21T01:25:14;96847.78;;;14.01;87.31
39769;BME280;38939;47.824;14.642;2023-05-21T01:26:16;96853.81;;;14.01;87.46
39769;BME280;38939;47.824;14.642;2023-05-21T01:27:19;96845.38;;;13.99;87.17
39769;BME280;38939;47.824;14.642;2023-05-21T01:28:21;96855.28;;;13.97;87.66
39769;BME280;38939;47.824;14.642;2023-05-21T01:29:23;96856.91;;;13.98;87.81
39769;BME280;38939;47.824;14.642;2023-05-21T01:30:25;96849.81;;;13.99;87.66
39769;BME280;38939;47.824;14.642;2023-05-21T01:31:29;96851.44;;;14.00;87.35
39769;BME280;38939;47.824;14.642;2023-05-21T01:32:46;96852.25;;;14.00;87.24
39769;BME280;38939;47.824;14.642;2023-05-21T01:33:50;96853.03;;;14.01;87.74
39769;BME280;38939;47.824;14.642;2023-05-21T01:36:12;96853.13;;;13.94;87.95
39769;BME280;38939;47.824;14.642;2023-05-21T01:37:19;96852.78;;;13.91;88.26
39769;BME280;38939;47.824;14.642;2023-05-21T01:38:27;96847.31;;;13.92;87.81
39769;BME280;38939;47.824;14.642;2023-05-21T01:39:32;96850.38;;;13.89;87.50
39769;BME280;38939;47.824;14.642;2023-05-21T01:40:38;96843.53;;;13.88;87.41
39769;BME280;38939;47.824;14.642;2023-05-21T01:41:42;96842.28;;;13.91;86.94
39769;BME280;38939;47.824;14.642;2023-05-21T01:42:46;96845.25;;;13.94;86.62
39769;BME280;38939;47.824;14.642;2023-05-21T01:43:48;96839.81;;;13.96;86.88
39769;BME280;38939;47.824;14.642;2023-05-21T01:44:52;96829.88;;;13.98;86.99
39769;BME280;38939;47.824;14.642;2023-05-21T01:45:55;96830.91;;;13.97;87.21
39769;BME280;38939;47.824;14.642;2023-05-21T01:46:58;96829.06;;;13.97;86.99
39769;BME280;38939;47.824;14.642;2023-05-21T01:48:00;96840.59;;;13.96;87.83
39769;BME280;38939;47.824;14.642;2023-05-21T01:49:02;96840.81;;;13.95;88.12
39769;BME280;38939;47.824;14.642;2023-05-21T01:50:05;96833.97;;;13.94;88.13
39769;BME280;38939;47.824;14.642;2023-05-21T01:51:08;96838.19;;;13.95;87.81
39769;BME280;38939;47.824;14.642;2023-05-21T01:52:10;96842.19;;;13.97;87.61
39769;BME280;38939;47.824;14.642;2023-05-21T01:53:13;96834.66;;;14.01;87.34
39769;BME280;38939;47.824;14.642;2023-05-21T01:54:16;96836.03;;;14.04;87.06
39769;BME280;38939;47.824;14.642;2023-05-21T01:55:18;96829.56;;;14.06;86.97
39769;BME280;38939;47.824;14.642;2023-05-21T01:56:25;96830.13;;;14.08;86.55
39769;BME280;38939;47.824;14.642;2023-05-21T01:57:29;96830.69;;;14.10;86.19
39769;BME280;38939;47.824;14.642;2023-05-21T01:58:31;96830.47;;;14.12;86.42
39769;BME280;38939;47.824;14.642;2023-05-21T01:59:33;96833.91;;;14.12;86.60
39769;BME280;38939;47.824;14.642;2023-05-21T02:00:35;96839.94;;;14.13;86.29
39769;BME280;38939;47.824;14.642;2023-05-21T02:01:38;96839.94;;;14.13;86.46
39769;BME280;38939;47.824;14.642;2023-05-21T02:02:40;96833.44;;;14.15;86.20
39769;BME280;38939;47.824;14.642;2023-05-21T02:03:42;96839.16;;;14.12;86.21
39769;BME280;38939;47.824;14.642;2023-05-21T02:04:44;96839.59;;;14.09;86.63
39769;BME280;38939;47.824;14.642;2023-05-21T02:05:47;96840.38;;;14.10;86.67
39769;BME280;38939;47.824;14.642;2023-05-21T02:06:49;96840.06;;;14.06;87.00
39769;BME280;38939;47.824;14.642;2023-05-21T02:07:51;96839.47;;;14.04;87.23
39769;BME280;38939;47.824;14.642;2023-05-21T02:08:53;96850.97;;;14.03;87.24
39769;BME280;38939;47.824;14.642;2023-05-21T02:09:56;96845.72;;;14.03;86.99
39769;BME280;38939;47.824;14.642;2023-05-21T02:10:58;96854.19;;;14.05;86.92
39769;BME280;38939;47.824;14.642;2023-05-21T02:12:01;96850.53;;;14.06;86.67
39769;BME280;38939;47.824;14.642;2023-05-21T02:13:03;96845.38;;;13.99;87.22
39769;BME280;38939;47.824;14.642;2023-05-21T02:14:05;96841.13;;;13.87;87.43
39769;BME280;38939;47.824;14.642;2023-05-21T02:15:08;96840.78;;;13.83;87.88
39769;BME280;38939;47.824;14.642;2023-05-21T02:16:11;96830.53;;;13.82;87.83
39769;BME280;38939;47.824;14.642;2023-05-21T02:17:15;96835.53;;;13.83;87.67
39769;BME280;38939;47.824;14.642;2023-05-21T02:18:18;96834.88;;;13.88;87.53
39769;BME280;38939;47.824;14.642;2023-05-21T02:19:21;96840.13;;;13.88;88.12
39769;BME280;38939;47.824;14.642;2023-05-21T02:20:23;96833.84;;;13.89;88.34
39769;BME280;38939;47.824;14.642;2023-05-21T02:21:25;96826.19;;;13.87;88.57
39769;BME280;38939;47.824;14.642;2023-05-21T02:22:27;96829.38;;;13.89;88.02
39769;BME280;38939;47.824;14.642;2023-05-21T02:23:29;96829.16;;;13.91;88.22
39769;BME280;38939;47.824;14.642;2023-05-21T02:24:32;96833.16;;;13.82;88.45
39769;BME280;38939;47.824;14.642;2023-05-21T02:25:33;96834.38;;;13.79;88.22
39769;BME280;38939;47.824;14.642;2023-05-21T02:26:36;96836.00;;;13.80;88.57
39769;BME280;38939;47.824;14.642;2023-05-21T02:27:38;96834.00;;;13.75;88.68
39769;BME280;38939;47.824;14.642;2023-05-21T02:28:41;96833.59;;;13.78;88.53
39769;BME280;38939;47.824;14.642;2023-05-21T02:29:43;96835.19;;;13.79;88.75
39769;BME280;38939;47.824;14.642;2023-05-21T02:30:45;96838.03;;;13.78;89.31
39769;BME280;38939;47.824;14.642;2023-05-21T02:31:47;96828.34;;;13.78;89.38
39769;BME280;38939;47.824;14.642;2023-05-21T02:32:49;96828.34;;;13.78;89.67
39769;BME280;38939;47.824;14.642;2023-05-21T02:33:51;96829.50;;;13.83;89.39
39769;BME280;38939;47.824;14.642;2023-05-21T02:34:53;96822.78;;;13.87;89.02
39769;BME280;38939;47.824;14.642;2023-05-21T02:35:55;96823.34;;;13.89;88.67
39769;BME280;38939;47.824;14.642;2023-05-21T02:36:57;96824.59;;;13.86;88.95
39769;BME280;38939;47.824;14.642;2023-05-21T02:37:59;96824.25;;;13.83;88.57
39769;BME280;38939;47.824;14.642;2023-05-21T02:39:03;96828.34;;;13.78;88.99
39769;BME280;38939;47.824;14.642;2023-05-21T02:40:06;96828.34;;;13.78;88.74
39769;BME280;38939;47.824;14.642;2023-05-21T02:41:08;96824.72;;;13.79;88.38
39769;BME280;38939;47.824;14.642;2023-05-21T02:42:11;96827.34;;;13.79;87.81
39769;BME280;38939;47.824;14.642;2023-05-21T02:43:13;96829.13;;;13.79;87.91
39769;BME280;38939;47.824;14.642;2023-05-21T02:44:16;96828.34;;;13.78;87.58
39769;BME280;38939;47.824;14.642;2023-05-21T02:45:19;96826.16;;;13.75;88.45
39769;BME280;38939;47.824;14.642;2023-05-21T02:46:21;96819.91;;;13.76;87.97
39769;BME280;38939;47.824;14.642;2023-05-21T02:47:24;96822.53;;;13.76;87.41
39769;BME280;38939;47.824;14.642;2023-05-21T02:48:26;96822.09;;;13.79;87.14
39769;BME280;38939;47.824;14.642;2023-05-21T02:49:28;96819.22;;;13.81;87.05
39769;BME280;38939;47.824;14.642;2023-05-21T02:50:30;96819.22;;;13.81;87.25
39769;BME280;38939;47.824;14.642;2023-05-21T02:51:32;96821.41;;;13.84;87.09
39769;BME280;38939;47.824;14.642;2023-05-21T02:52:34;96816.16;;;13.84;87.79
39769;BME280;38939;47.824;14.642;2023-05-21T02:53:37;96819.00;;;13.83;87.73
39769;BME280;38939;47.824;14.642;2023-05-21T02:54:39;96817.41;;;13.82;87.86
39769;BME280;38939;47.824;14.642;2023-05-21T02:55:41;96809.31;;;13.83;87.38
39769;BME280;38939;47.824;14.642;2023-05-21T02:56:43;96811.72;;;13.85;87.57
39769;BME280;38939;47.824;14.642;2023-05-21T02:57:45;96809.31;;;13.83;87.16
39769;BME280;38939;47.824;14.642;2023-05-21T02:58:47;96803.84;;;13.85;87.22
39769;BME280;38939;47.824;14.642;2023-05-21T02:59:49;96807.81;;;13.87;87.24
39769;BME280;38939;47.824;14.642;2023-05-21T03:00:51;96811.28;;;13.88;87.45
39769;BME280;38939;47.824;14.642;2023-05-21T03:01:54;96807.81;;;13.87;87.76
39769;BME280;38939;47.824;14.642;2023-05-21T03:02:56;96803.84;;;13.85;87.91
39769;BME280;38939;47.824;14.642;2023-05-21T03:03:58;96816.94;;;13.85;87.83
39769;BME280;38939;47.824;14.642;2023-05-21T03:05:00;96816.94;;;13.85;87.41
39769;BME280;38939;47.824;14.642;2023-05-21T03:06:02;96825.03;;;13.83;87.58
39769;BME280;38939;47.824;14.642;2023-05-21T03:07:04;96817.75;;;13.85;87.50
39769;BME280;38939;47.824;14.642;2023-05-21T03:08:06;96813.91;;;13.88;87.24
39769;BME280;38939;47.824;14.642;2023-05-21T03:09:09;96818.09;;;13.89;87.54
39769;BME280;38939;47.824;14.642;2023-05-21T03:10:11;96823.44;;;13.82;87.93
39769;BME280;38939;47.824;14.642;2023-05-21T03:11:13;96822.41;;;13.83;87.89
39769;BME280;38939;47.824;14.642;2023-05-21T03:12:15;96820.63;;;13.84;87.85
39769;BME280;38939;47.824;14.642;2023-05-21T03:13:17;96822.41;;;13.83;87.85
39769;BME280;38939;47.824;14.642;2023-05-21T03:14:19;96827.44;;;13.85;87.86
39769;BME280;38939;47.824;14.642;2023-05-21T03:15:21;96819.34;;;13.86;87.76
39769;BME280;38939;47.824;14.642;2023-05-21T03:16:24;96813.91;;;13.88;87.51
39769;BME280;38939;47.824;14.642;2023-05-21T03:17:26;96822.56;;;13.88;87.85
39769;BME280;38939;47.824;14.642;2023-05-21T03:18:28;96816.94;;;13.85;87.86
39769;BME280;38939;47.824;14.642;2023-05-21T03:19:31;96821.63;;;13.83;88.15
39769;BME280;38939;47.824;14.642;2023-05-21T03:20:35;96832.34;;;13.81;88.19
39769;BME280;38939;47.824;14.642;2023-05-21T03:21:37;96824.72;;;13.79;88.17
39769;BME280;38939;47.824;14.642;2023-05-21T03:22:41;96821.84;;;13.81;87.96
39769;BME280;38939;47.824;14.642;2023-05-21T03:23:43;96830.97;;;13.78;88.46
39769;BME280;38939;47.824;14.642;2023-05-21T03:24:45;96834.75;;;13.83;88.03
39769;BME280;38939;47.824;14.642;2023-05-21T03:25:47;96826.66;;;13.84;87.48
39769;BME280;38939;47.824;14.642;2023-05-21T03:26:49;96831.09;;;13.84;87.32
39769;BME280;38939;47.824;14.642;2023-05-21T03:27:51;96830.66;;;13.87;87.03
39769;BME280;38939;47.824;14.642;2023-05-21T03:28:53;96833.84;;;13.89;87.01
39769;BME280;38939;47.824;14.642;2023-05-21T03:29:55;96831.78;;;13.91;87.18
39769;BME280;38939;47.824;14.642;2023-05-21T03:30:58;96836.03;;;13.92;87.12
39769;BME280;38939;47.824;14.642;2023-05-21T03:32:00;96828.38;;;13.90;87.50
39769;BME280;38939;47.824;14.642;2023-05-21T03:33:02;96832.25;;;13.88;87.66
39769;BME280;38939;47.824;14.642;2023-05-21T03:34:05;96834.88;;;13.88;87.40
39769;BME280;38939;47.824;14.642;2023-05-21T03:35:09;96833.25;;;13.87;87.81
39769;BME280;38939;47.824;14.642;2023-05-21T03:36:11;96826.66;;;13.84;88.05
39769;BME280;38939;47.824;14.642;2023-05-21T03:37:13;96829.28;;;13.84;87.98
39769;BME280;38939;47.824;14.642;2023-05-21T03:38:15;96817.41;;;13.82;87.98
39769;BME280;38939;47.824;14.642;2023-05-21T03:39:17;96831.53;;;13.80;88.27
39769;BME280;38939;47.824;14.642;2023-05-21T03:40:19;96823.09;;;13.78;88.51
39769;BME280;38939;47.824;14.642;2023-05-21T03:41:22;96820.13;;;13.75;89.30
39769;BME280;38939;47.824;14.642;2023-05-21T03:42:24;96833.00;;;13.76;88.39
39769;BME280;38939;47.824;14.642;2023-05-21T03:43:26;96826.72;;;13.77;88.17
39769;BME280;38939;47.824;14.642;2023-05-21T03:44:28;96829.97;;;13.79;88.18
39769;BME280;38939;47.824;14.642;2023-05-21T03:45:33;96828.34;;;13.78;88.12
39769;BME280;38939;47.824;14.642;2023-05-21T03:46:35;96831.53;;;13.80;88.03
39769;BME280;38939;47.824;14.642;2023-05-21T03:47:37;96833.16;;;13.82;88.38
39769;BME280;38939;47.824;14.642;2023-05-21T03:48:39;96825.28;;;13.82;88.16
39769;BME280;38939;47.824;14.642;2023-05-21T03:49:41;96825.88;;;13.84;87.83
39769;BME280;38939;47.824;14.642;2023-05-21T03:50:43;96823.56;;;13.87;87.81
39769;BME280;38939;47.824;14.642;2023-05-21T03:51:45;96829.63;;;13.88;88.49
39769;BME280;38939;47.824;14.642;2023-05-21T03:52:47;96821.19;;;13.86;88.73
39769;BME280;38939;47.824;14.642;2023-05-21T03:53:50;96830.28;;;13.83;89.26
39769;BME280;38939;47.824;14.642;2023-05-21T03:54:52;96833.22;;;13.75;89.35
39769;BME280;38939;47.824;14.642;2023-05-21T03:55:54;96833.13;;;13.70;89.17
39769;BME280;38939;47.824;14.642;2023-05-21T03:56:56;96829.66;;;13.69;88.86
39769;BME280;38939;47.824;14.642;2023-05-21T03:57:57;96834.47;;;13.72;88.93
39769;BME280;38939;47.824;14.642;2023-05-21T03:58:59;96834.84;;;13.76;88.98
39769;BME280;38939;47.824;14.642;2023-05-21T04:00:02;96839.25;;;13.75;89.27
39769;BME280;38939;47.824;14.642;2023-05-21T04:01:05;96840.09;;;13.76;89.02
39769;BME280;38939;47.824;14.642;2023-05-21T04:02:09;96847.72;;;13.77;89.18
39769;BME280;38939;47.824;14.642;2023-05-21T04:03:11;96839.25;;;13.75;89.35
39769;BME280;38939;47.824;14.642;2023-05-21T04:04:13;96838.25;;;13.76;89.64
39769;BME280;38939;47.824;14.642;2023-05-21T04:05:15;96835.41;;;13.78;89.38
39769;BME280;38939;47.824;14.642;2023-05-21T04:06:17;96836.78;;;13.80;88.88
39769;BME280;38939;47.824;14.642;2023-05-21T04:07:19;96832.34;;;13.81;89.18
39769;BME280;38939;47.824;14.642;2023-05-21T04:08:21;96839.75;;;13.84;88.79
39769;BME280;38939;47.824;14.642;2023-05-21T04:09:23;96835.09;;;13.86;88.26
39769;BME280;38939;47.824;14.642;2023-05-21T04:10:25;96834.63;;;13.89;88.34
39769;BME280;38939;47.824;14.642;2023-05-21T04:11:27;96834.19;;;13.92;88.21
39769;BME280;38939;47.824;14.642;2023-05-21T04:12:29;96842.44;;;13.96;87.87
39769;BME280;38939;47.824;14.642;2023-05-21T04:13:31;96836.13;;;13.97;88.14
39769;BME280;38939;47.824;14.642;2023-05-21T04:14:33;96838.75;;;13.97;88.72
39769;BME280;38939;47.824;14.642;2023-05-21T04:15:35;96848.47;;;13.96;88.50
39769;BME280;38939;47.824;14.642;2023-05-21T04:16:39;96839.81;;;13.96;88.81
39769;BME280;38939;47.824;14.642;2023-05-21T04:17:44;96840.59;;;13.96;88.89
39769;BME280;38939;47.824;14.642;2023-05-21T04:18:46;96840.59;;;13.96;88.93
39769;BME280;38939;47.824;14.642;2023-05-21T04:19:48;96841.38;;;13.97;88.98
39769;BME280;38939;47.824;14.642;2023-05-21T04:20:50;96844.00;;;13.97;89.33
39769;BME280;38939;47.824;14.642;2023-05-21T04:21:52;96844.00;;;13.97;89.32
39769;BME280;38939;47.824;14.642;2023-05-21T04:22:54;96840.13;;;13.99;89.29
39769;BME280;38939;47.824;14.642;2023-05-21T04:23:57;96831.03;;;14.02;89.17
39769;BME280;38939;47.824;14.642;2023-05-21T04:25:01;96826.78;;;14.01;89.49
39769;BME280;38939;47.824;14.642;2023-05-21T04:26:03;96831.03;;;14.02;89.27
39769;BME280;38939;47.824;14.642;2023-05-21T04:27:05;96827.84;;;14.00;89.97
39769;BME280;38939;47.824;14.642;2023-05-21T04:28:07;96829.06;;;13.97;89.79
39769;BME280;38939;47.824;14.642;2023-05-21T04:29:09;96832.25;;;13.99;89.54
39769;BME280;38939;47.824;14.642;2023-05-21T04:30:11;96832.03;;;14.01;89.49
39769;BME280;38939;47.824;14.642;2023-05-21T04:31:13;96834.44;;;14.03;89.45
39769;BME280;38939;47.824;14.642;2023-05-21T04:32:15;96841.84;;;14.06;89.47
39769;BME280;38939;47.824;14.642;2023-05-21T04:33:18;96833.41;;;14.04;90.01
39769;BME280;38939;47.824;14.642;2023-05-21T04:34:20;96840.44;;;13.91;90.68
39769;BME280;38939;47.824;14.642;2023-05-21T04:35:22;96836.56;;;13.82;90.78
39769;BME280;38939;47.824;14.642;2023-05-21T04:36:24;96843.06;;;13.79;90.99
39769;BME280;38939;47.824;14.642;2023-05-21T04:37:29;96839.97;;;13.83;90.81
39769;BME280;38939;47.824;14.642;2023-05-21T04:38:32;96828.22;;;13.85;90.74
39769;BME280;38939;47.824;14.642;2023-05-21T04:39:35;96838.88;;;13.90;90.66
39769;BME280;38939;47.824;14.642;2023-05-21T04:40:36;96846.06;;;13.95;90.15
39769;BME280;38939;47.824;14.642;2023-05-21T04:41:39;96844.81;;;13.97;90.72
39769;BME280;38939;47.824;14.642;2023-05-21T04:42:41;96836.47;;;13.89;90.78
39769;BME280;38939;47.824;14.642;2023-05-21T04:43:44;96836.78;;;13.80;91.20
39769;BME280;38939;47.824;14.642;2023-05-21T04:44:46;96843.66;;;13.82;91.81
39769;BME280;38939;47.824;14.642;2023-05-21T04:45:49;96842.03;;;13.80;91.59
39769;BME280;38939;47.824;14.642;2023-05-21T04:46:51;96840.56;;;13.85;91.40
39769;BME280;38939;47.824;14.642;2023-05-21T04:47:55;96837.03;;;13.91;91.50
39769;BME280;38939;47.824;14.642;2023-05-21T04:49:01;96826.13;;;13.94;91.18
39769;BME280;38939;47.824;14.642;2023-05-21T04:50:03;96836.94;;;13.97;90.79
39769;BME280;38939;47.824;14.642;2023-05-21T04:51:06;96833.88;;;14.00;91.03
39769;BME280;38939;47.824;14.642;2023-05-21T04:52:08;96833.31;;;13.98;91.27
39769;BME280;38939;47.824;14.642;2023-05-21T04:53:10;96839.91;;;14.01;91.29
39769;BME280;38939;47.824;14.642;2023-05-21T04:54:11;96838.09;;;14.01;91.34
39769;BME280;38939;47.824;14.642;2023-05-21T04:55:13;96835.34;;;13.96;91.92
39769;BME280;38939;47.824;14.642;2023-05-21T04:56:16;96834.56;;;13.96;91.97
39769;BME280;38939;47.824;14.642;2023-05-21T04:57:19;96839.31;;;13.87;92.54
39769;BME280;38939;47.824;14.642;2023-05-21T04:58:22;96831.97;;;13.77;92.88
39769;BME280;38939;47.824;14.642;2023-05-21T04:59:24;96836.22;;;13.78;93.07
39769;BME280;38939;47.824;14.642;2023-05-21T05:00:26;96838.97;;;13.84;92.87
39769;BME280;38939;47.824;14.642;2023-05-21T05:01:28;96835.44;;;13.90;92.58
39769;BME280;38939;47.824;14.642;2023-05-21T05:02:30;96838.41;;;13.93;92.62
39769;BME280;38939;47.824;14.642;2023-05-21T05:03:32;96840.25;;;13.93;92.83
39769;BME280;38939;47.824;14.642;2023-05-21T05:04:34;96829.84;;;13.86;92.85
39769;BME280;38939;47.824;14.642;2023-05-21T05:05:36;96833.47;;;13.85;92.63
39769;BME280;38939;47.824;14.642;2023-05-21T05:06:39;96832.84;;;13.90;92.54
39769;BME280;38939;47.824;14.642;2023-05-21T05:07:41;96837.84;;;13.91;92.84
39769;BME280;38939;47.824;14.642;2023-05-21T05:08:43;96830.22;;;13.90;92.68
39769;BME280;38939;47.824;14.642;2023-05-21T05:09:46;96840.44;;;13.91;92.70
39769;BME280;38939;47.824;14.642;2023-05-21T05:10:48;96827.69;;;13.95;92.84
39769;BME280;38939;47.824;14.642;2023-05-21T05:11:50;96833.97;;;13.94;92.82
39769;BME280;38939;47.824;14.642;2023-05-21T05:12:52;96839.81;;;13.96;93.00
39769;BME280;38939;47.824;14.642;2023-05-21T05:13:54;96830.47;;;14.00;92.92
39769;BME280;38939;47.824;14.642;2023-05-21T05:14:56;96831.25;;;14.00;92.83
39769;BME280;38939;47.824;14.642;2023-05-21T05:15:58;96827.25;;;13.98;92.82
39769;BME280;38939;47.824;14.642;2023-05-21T05:17:01;96826.22;;;13.99;92.96
39769;BME280;38939;47.824;14.642;2023-05-21T05:18:03;96828.41;;;14.02;93.13
39769;BME280;38939;47.824;14.642;2023-05-21T05:19:05;96828.97;;;14.04;93.15
39769;BME280;38939;47.824;14.642;2023-05-21T05:20:07;96830.00;;;14.03;92.87
39769;BME280;38939;47.824;14.642;2023-05-21T05:21:09;96833.75;;;14.07;92.88
39769;BME280;38939;47.824;14.642;2023-05-21T05:22:11;96831.94;;;14.08;92.77
39769;BME280;38939;47.824;14.642;2023-05-21T05:23:14;96831.72;;;14.09;92.64
39769;BME280;38939;47.824;14.642;2023-05-21T05:24:16;96829.56;;;14.06;92.83
39769;BME280;38939;47.824;14.642;2023-05-21T05:25:18;96824.88;;;14.08;92.59
39769;BME280;38939;47.824;14.642;2023-05-21T05:26:20;96828.28;;;14.09;92.80
39769;BME280;38939;47.824;14.642;2023-05-21T05:27:22;96830.47;;;14.12;92.86
39769;BME280;38939;47.824;14.642;2023-05-21T05:28:24;96825.34;;;14.17;92.78